sensor_id;sensor_type;location;lat;lon;timestamp;P1;durP1;ratioP1;P2;durP2;ratioP2
59014;SDS011;44799;53.382;14.666;2023-03-13T00:53:52;843.13;;;579.75;;
59014;SDS011;44799;53.382;14.666;2023-03-13T00:56:19;836.20;;;576.33;;
59014;SDS011;44799;53.382;14.666;2023-03-13T00:58:46;850.28;;;586.78;;
59014;SDS011;44799;53.382;14.666;2023-03-13T01:01:14;840.40;;;581.00;;
59014;SDS011;44799;53.382;14.666;2023-03-13T02:07:47;837.60;;;577.53;;
59014;SDS011;44799;53.382;14.666;2023-03-13T02:10:19;848.83;;;586.38;;
59014;SDS011;44799;53.382;14.666;2023-03-13T02:12:46;858.67;;;591.78;;
59014;SDS011;44799;53.382;14.666;2023-03-13T02:15:17;847.93;;;585.87;;
59014;SDS011;44799;53.382;14.666;2023-03-13T02:17:45;851.78;;;585.90;;
59014;SDS011;44799;53.382;14.666;2023-03-13T02:20:13;849.50;;;584.72;;
59014;SDS011;44799;53.382;14.666;2023-03-13T02:28:04;862.70;;;598.15;;
59014;SDS011;44799;53.382;14.666;2023-03-13T02:30:34;846.10;;;584.05;;
59014;SDS011;44799;53.382;14.666;2023-03-13T02:33:00;856.22;;;593.25;;
59014;SDS011;44799;53.382;14.666;2023-03-13T02:35:27;850.20;;;590.58;;
59014;SDS011;44799;53.382;14.666;2023-03-13T02:37:56;852.38;;;592.83;;
59014;SDS011;44799;53.382;14.666;2023-03-13T02:40:29;854.10;;;591.78;;
59014;SDS011;44799;53.382;14.666;2023-03-13T02:42:59;864.63;;;600.55;;
59014;SDS011;44799;53.382;14.666;2023-03-13T02:45:27;861.88;;;596.05;;
59014;SDS011;44799;53.382;14.666;2023-03-13T02:47:53;862.47;;;595.15;;
59014;SDS011;44799;53.382;14.666;2023-03-13T02:50:19;860.10;;;592.97;;
59014;SDS011;44799;53.382;14.666;2023-03-13T02:52:46;859.80;;;593.45;;
59014;SDS011;44799;53.382;14.666;2023-03-13T02:55:15;862.05;;;598.22;;
59014;SDS011;44799;53.382;14.666;2023-03-13T02:57:50;864.75;;;598.40;;
59014;SDS011;44799;53.382;14.666;2023-03-13T03:00:16;844.60;;;583.50;;
59014;SDS011;44799;53.382;14.666;2023-03-13T03:02:43;845.05;;;583.30;;
59014;SDS011;44799;53.382;14.666;2023-03-13T03:05:10;847.85;;;586.80;;
59014;SDS011;44799;53.382;14.666;2023-03-13T03:07:36;853.50;;;590.50;;
59014;SDS011;44799;53.382;14.666;2023-03-13T03:10:03;850.58;;;589.78;;
59014;SDS011;44799;53.382;14.666;2023-03-13T03:12:29;850.65;;;588.15;;
59014;SDS011;44799;53.382;14.666;2023-03-13T03:14:55;840.88;;;581.90;;
59014;SDS011;44799;53.382;14.666;2023-03-13T03:17:21;850.42;;;588.38;;
59014;SDS011;44799;53.382;14.666;2023-03-13T03:19:47;852.28;;;590.63;;
59014;SDS011;44799;53.382;14.666;2023-03-13T03:22:13;847.30;;;587.22;;
59014;SDS011;44799;53.382;14.666;2023-03-13T03:24:38;858.33;;;594.70;;
59014;SDS011;44799;53.382;14.666;2023-03-13T03:27:04;856.05;;;593.97;;
59014;SDS011;44799;53.382;14.666;2023-03-13T03:29:30;864.70;;;601.28;;
59014;SDS011;44799;53.382;14.666;2023-03-13T03:31:56;865.58;;;605.20;;
59014;SDS011;44799;53.382;14.666;2023-03-13T03:34:22;861.13;;;600.55;;
59014;SDS011;44799;53.382;14.666;2023-03-13T03:36:48;872.42;;;607.40;;
59014;SDS011;44799;53.382;14.666;2023-03-13T03:39:14;856.75;;;593.65;;
59014;SDS011;44799;53.382;14.666;2023-03-13T03:41:40;863.10;;;602.17;;
59014;SDS011;44799;53.382;14.666;2023-03-13T03:44:05;862.45;;;598.50;;
59014;SDS011;44799;53.382;14.666;2023-03-13T03:46:31;854.75;;;596.42;;
59014;SDS011;44799;53.382;14.666;2023-03-13T03:48:57;853.20;;;593.72;;
59014;SDS011;44799;53.382;14.666;2023-03-13T03:51:23;847.30;;;588.28;;
59014;SDS011;44799;53.382;14.666;2023-03-13T03:53:49;856.30;;;591.97;;
59014;SDS011;44799;53.382;14.666;2023-03-13T03:56:15;864.00;;;599.15;;
59014;SDS011;44799;53.382;14.666;2023-03-13T03:58:40;852.70;;;593.20;;
59014;SDS011;44799;53.382;14.666;2023-03-13T04:01:06;859.55;;;597.72;;
59014;SDS011;44799;53.382;14.666;2023-03-13T04:03:32;852.00;;;589.97;;
59014;SDS011;44799;53.382;14.666;2023-03-13T04:05:58;856.65;;;596.45;;
59014;SDS011;44799;53.382;14.666;2023-03-13T04:08:24;859.90;;;597.30;;
59014;SDS011;44799;53.382;14.666;2023-03-13T04:10:50;855.03;;;593.55;;
59014;SDS011;44799;53.382;14.666;2023-03-13T04:13:16;864.08;;;600.17;;
59014;SDS011;44799;53.382;14.666;2023-03-13T04:15:42;843.72;;;586.50;;
59014;SDS011;44799;53.382;14.666;2023-03-13T04:18:08;854.17;;;592.63;;
59014;SDS011;44799;53.382;14.666;2023-03-13T04:20:34;862.67;;;601.85;;
59014;SDS011;44799;53.382;14.666;2023-03-13T04:23:00;865.92;;;605.10;;
59014;SDS011;44799;53.382;14.666;2023-03-13T04:25:26;863.08;;;602.40;;
59014;SDS011;44799;53.382;14.666;2023-03-13T04:27:52;864.30;;;600.95;;
59014;SDS011;44799;53.382;14.666;2023-03-13T04:30:18;849.58;;;590.05;;
59014;SDS011;44799;53.382;14.666;2023-03-13T04:32:44;866.53;;;605.15;;
59014;SDS011;44799;53.382;14.666;2023-03-13T04:35:09;860.13;;;600.83;;
59014;SDS011;44799;53.382;14.666;2023-03-13T04:37:35;851.25;;;590.97;;
59014;SDS011;44799;53.382;14.666;2023-03-13T04:40:01;853.67;;;594.08;;
59014;SDS011;44799;53.382;14.666;2023-03-13T04:42:27;865.78;;;601.67;;
59014;SDS011;44799;53.382;14.666;2023-03-13T04:44:53;854.20;;;594.33;;
59014;SDS011;44799;53.382;14.666;2023-03-13T04:47:19;859.40;;;595.30;;
59014;SDS011;44799;53.382;14.666;2023-03-13T04:49:45;855.88;;;593.40;;
59014;SDS011;44799;53.382;14.666;2023-03-13T04:52:10;862.05;;;596.58;;
59014;SDS011;44799;53.382;14.666;2023-03-13T04:54:37;862.22;;;598.70;;
59014;SDS011;44799;53.382;14.666;2023-03-13T04:57:03;858.72;;;596.20;;
59014;SDS011;44799;53.382;14.666;2023-03-13T04:59:28;845.10;;;586.00;;
59014;SDS011;44799;53.382;14.666;2023-03-13T05:01:54;840.58;;;582.20;;
59014;SDS011;44799;53.382;14.666;2023-03-13T05:04:20;848.00;;;586.65;;
59014;SDS011;44799;53.382;14.666;2023-03-13T05:06:46;848.55;;;584.95;;
59014;SDS011;44799;53.382;14.666;2023-03-13T05:09:12;860.10;;;596.60;;
59014;SDS011;44799;53.382;14.666;2023-03-13T05:11:38;859.00;;;596.58;;
59014;SDS011;44799;53.382;14.666;2023-03-13T05:14:04;851.40;;;594.78;;
59014;SDS011;44799;53.382;14.666;2023-03-13T05:16:33;849.40;;;592.10;;
59014;SDS011;44799;53.382;14.666;2023-03-13T05:18:58;857.95;;;597.88;;
59014;SDS011;44799;53.382;14.666;2023-03-13T05:21:24;855.35;;;595.97;;
59014;SDS011;44799;53.382;14.666;2023-03-13T05:23:50;856.42;;;596.88;;
59014;SDS011;44799;53.382;14.666;2023-03-13T05:26:16;863.58;;;600.15;;
59014;SDS011;44799;53.382;14.666;2023-03-13T05:28:42;863.22;;;603.58;;
59014;SDS011;44799;53.382;14.666;2023-03-13T05:31:08;859.50;;;600.33;;
59014;SDS011;44799;53.382;14.666;2023-03-13T05:33:33;859.40;;;595.28;;
59014;SDS011;44799;53.382;14.666;2023-03-13T05:35:59;856.10;;;595.03;;
59014;SDS011;44799;53.382;14.666;2023-03-13T05:38:25;856.88;;;595.08;;
59014;SDS011;44799;53.382;14.666;2023-03-13T05:40:51;843.85;;;586.13;;
59014;SDS011;44799;53.382;14.666;2023-03-13T05:43:16;847.53;;;591.53;;
59014;SDS011;44799;53.382;14.666;2023-03-13T05:45:42;853.17;;;595.80;;
59014;SDS011;44799;53.382;14.666;2023-03-13T05:48:08;846.70;;;589.08;;
59014;SDS011;44799;53.382;14.666;2023-03-13T05:50:34;852.53;;;595.67;;
59014;SDS011;44799;53.382;14.666;2023-03-13T05:53:00;859.20;;;599.33;;
59014;SDS011;44799;53.382;14.666;2023-03-13T05:55:25;863.15;;;600.05;;
59014;SDS011;44799;53.382;14.666;2023-03-13T05:57:51;854.47;;;594.20;;
59014;SDS011;44799;53.382;14.666;2023-03-13T06:00:17;856.35;;;597.13;;
59014;SDS011;44799;53.382;14.666;2023-03-13T06:02:43;861.38;;;600.95;;
59014;SDS011;44799;53.382;14.666;2023-03-13T06:05:09;869.28;;;604.38;;
59014;SDS011;44799;53.382;14.666;2023-03-13T06:07:35;857.38;;;599.00;;
59014;SDS011;44799;53.382;14.666;2023-03-13T06:10:02;855.72;;;595.25;;
59014;SDS011;44799;53.382;14.666;2023-03-13T06:12:28;851.03;;;592.35;;
59014;SDS011;44799;53.382;14.666;2023-03-13T06:14:54;859.78;;;598.58;;
59014;SDS011;44799;53.382;14.666;2023-03-13T06:17:20;860.78;;;600.58;;
59014;SDS011;44799;53.382;14.666;2023-03-13T06:19:46;866.03;;;604.47;;
59014;SDS011;44799;53.382;14.666;2023-03-13T06:22:12;857.20;;;596.65;;
59014;SDS011;44799;53.382;14.666;2023-03-13T06:24:37;865.97;;;601.28;;
59014;SDS011;44799;53.382;14.666;2023-03-13T06:27:04;860.22;;;599.40;;
59014;SDS011;44799;53.382;14.666;2023-03-13T06:29:31;853.72;;;591.83;;
59014;SDS011;44799;53.382;14.666;2023-03-13T06:31:57;849.40;;;590.65;;
59014;SDS011;44799;53.382;14.666;2023-03-13T06:34:23;844.65;;;584.80;;
59014;SDS011;44799;53.382;14.666;2023-03-13T06:36:49;855.25;;;592.28;;
59014;SDS011;44799;53.382;14.666;2023-03-13T06:39:14;860.92;;;595.65;;
59014;SDS011;44799;53.382;14.666;2023-03-13T06:41:40;861.83;;;598.55;;
59014;SDS011;44799;53.382;14.666;2023-03-13T06:44:06;872.42;;;605.22;;
59014;SDS011;44799;53.382;14.666;2023-03-13T06:46:32;866.15;;;601.30;;
59014;SDS011;44799;53.382;14.666;2023-03-13T06:48:57;865.40;;;600.50;;
59014;SDS011;44799;53.382;14.666;2023-03-13T06:51:25;873.33;;;605.78;;
59014;SDS011;44799;53.382;14.666;2023-03-13T06:53:51;861.58;;;596.45;;
59014;SDS011;44799;53.382;14.666;2023-03-13T06:56:16;875.67;;;606.90;;
59014;SDS011;44799;53.382;14.666;2023-03-13T06:58:45;863.47;;;595.28;;
59014;SDS011;44799;53.382;14.666;2023-03-13T07:01:12;863.20;;;598.65;;
59014;SDS011;44799;53.382;14.666;2023-03-13T07:03:39;871.03;;;600.95;;
59014;SDS011;44799;53.382;14.666;2023-03-13T07:06:05;872.45;;;603.50;;
59014;SDS011;44799;53.382;14.666;2023-03-13T07:08:32;873.58;;;605.67;;
59014;SDS011;44799;53.382;14.666;2023-03-13T07:11:00;873.47;;;602.63;;
59014;SDS011;44799;53.382;14.666;2023-03-13T07:13:28;853.85;;;589.22;;
59014;SDS011;44799;53.382;14.666;2023-03-13T07:15:55;859.08;;;592.15;;
59014;SDS011;44799;53.382;14.666;2023-03-13T07:18:23;858.20;;;590.17;;
59014;SDS011;44799;53.382;14.666;2023-03-13T07:20:53;871.20;;;600.17;;
59014;SDS011;44799;53.382;14.666;2023-03-13T07:23:20;864.70;;;594.25;;
59014;SDS011;44799;53.382;14.666;2023-03-13T07:25:54;864.50;;;596.80;;
59014;SDS011;44799;53.382;14.666;2023-03-13T07:28:21;869.85;;;602.90;;
59014;SDS011;44799;53.382;14.666;2023-03-13T07:30:47;871.35;;;605.20;;
59014;SDS011;44799;53.382;14.666;2023-03-13T07:33:14;863.33;;;595.25;;
59014;SDS011;44799;53.382;14.666;2023-03-13T07:35:40;877.22;;;604.17;;
59014;SDS011;44799;53.382;14.666;2023-03-13T07:38:11;848.00;;;577.67;;
59014;SDS011;44799;53.382;14.666;2023-03-13T07:40:37;846.78;;;578.17;;
59014;SDS011;44799;53.382;14.666;2023-03-13T07:43:03;855.85;;;583.70;;
59014;SDS011;44799;53.382;14.666;2023-03-13T07:45:28;846.45;;;576.15;;
59014;SDS011;44799;53.382;14.666;2023-03-13T07:47:54;856.58;;;584.10;;
59014;SDS011;44799;53.382;14.666;2023-03-13T07:50:21;853.53;;;582.25;;
59014;SDS011;44799;53.382;14.666;2023-03-13T07:52:46;853.67;;;582.05;;
59014;SDS011;44799;53.382;14.666;2023-03-13T07:55:12;853.70;;;580.42;;
59014;SDS011;44799;53.382;14.666;2023-03-13T07:57:38;858.10;;;582.45;;
59014;SDS011;44799;53.382;14.666;2023-03-13T08:00:04;857.03;;;580.95;;
59014;SDS011;44799;53.382;14.666;2023-03-13T08:02:34;854.25;;;578.22;;
59014;SDS011;44799;53.382;14.666;2023-03-13T08:05:00;850.35;;;578.33;;
59014;SDS011;44799;53.382;14.666;2023-03-13T08:07:26;855.92;;;581.58;;
59014;SDS011;44799;53.382;14.666;2023-03-13T08:09:52;848.55;;;576.60;;
59014;SDS011;44799;53.382;14.666;2023-03-13T08:12:17;853.88;;;580.70;;
59014;SDS011;44799;53.382;14.666;2023-03-13T08:14:43;842.47;;;573.75;;
59014;SDS011;44799;53.382;14.666;2023-03-13T08:17:09;843.88;;;573.25;;
59014;SDS011;44799;53.382;14.666;2023-03-13T08:19:35;848.42;;;574.75;;
59014;SDS011;44799;53.382;14.666;2023-03-13T08:22:02;856.80;;;581.65;;
59014;SDS011;44799;53.382;14.666;2023-03-13T08:24:28;849.28;;;575.53;;
59014;SDS011;44799;53.382;14.666;2023-03-13T08:26:54;849.17;;;577.78;;
59014;SDS011;44799;53.382;14.666;2023-03-13T08:29:20;851.05;;;579.80;;
59014;SDS011;44799;53.382;14.666;2023-03-13T08:31:46;847.42;;;575.33;;
59014;SDS011;44799;53.382;14.666;2023-03-13T08:34:14;856.83;;;580.70;;
59014;SDS011;44799;53.382;14.666;2023-03-13T08:36:41;857.17;;;584.97;;
59014;SDS011;44799;53.382;14.666;2023-03-13T08:39:11;858.53;;;583.22;;
59014;SDS011;44799;53.382;14.666;2023-03-13T08:44:05;852.55;;;584.42;;
59014;SDS011;44799;53.382;14.666;2023-03-13T08:46:33;861.47;;;588.17;;
59014;SDS011;44799;53.382;14.666;2023-03-13T08:49:00;857.83;;;585.53;;
59014;SDS011;44799;53.382;14.666;2023-03-13T08:51:27;863.00;;;586.30;;
59014;SDS011;44799;53.382;14.666;2023-03-13T08:53:53;868.22;;;593.13;;
59014;SDS011;44799;53.382;14.666;2023-03-13T08:56:21;862.40;;;587.15;;
59014;SDS011;44799;53.382;14.666;2023-03-13T08:58:53;868.40;;;589.35;;
59014;SDS011;44799;53.382;14.666;2023-03-13T09:01:21;858.67;;;581.75;;
59014;SDS011;44799;53.382;14.666;2023-03-13T09:03:49;865.05;;;591.13;;
59014;SDS011;44799;53.382;14.666;2023-03-13T09:06:15;863.72;;;585.17;;
59014;SDS011;44799;53.382;14.666;2023-03-13T09:08:41;865.72;;;587.25;;
59014;SDS011;44799;53.382;14.666;2023-03-13T09:11:09;860.50;;;587.33;;
59014;SDS011;44799;53.382;14.666;2023-03-13T09:13:38;867.53;;;591.28;;
59014;SDS011;44799;53.382;14.666;2023-03-13T09:16:08;865.97;;;588.22;;
59014;SDS011;44799;53.382;14.666;2023-03-13T09:18:36;853.85;;;581.08;;
59014;SDS011;44799;53.382;14.666;2023-03-13T09:21:04;855.65;;;580.92;;
59014;SDS011;44799;53.382;14.666;2023-03-13T09:23:32;860.45;;;585.00;;
59014;SDS011;44799;53.382;14.666;2023-03-13T09:25:57;857.22;;;581.88;;
59014;SDS011;44799;53.382;14.666;2023-03-13T09:28:24;865.85;;;588.50;;
59014;SDS011;44799;53.382;14.666;2023-03-13T09:30:50;851.95;;;580.67;;
59014;SDS011;44799;53.382;14.666;2023-03-13T09:33:17;869.53;;;591.28;;
59014;SDS011;44799;53.382;14.666;2023-03-13T09:35:45;867.67;;;589.80;;
59014;SDS011;44799;53.382;14.666;2023-03-13T09:38:17;870.00;;;593.03;;
59014;SDS011;44799;53.382;14.666;2023-03-13T09:40:45;868.28;;;590.08;;
59014;SDS011;44799;53.382;14.666;2023-03-13T09:43:17;853.05;;;580.92;;
59014;SDS011;44799;53.382;14.666;2023-03-13T09:45:45;856.28;;;582.33;;
59014;SDS011;44799;53.382;14.666;2023-03-13T09:48:28;859.72;;;583.78;;
59014;SDS011;44799;53.382;14.666;2023-03-13T09:51:11;859.88;;;586.13;;
59014;SDS011;44799;53.382;14.666;2023-03-13T09:53:41;859.28;;;583.45;;
59014;SDS011;44799;53.382;14.666;2023-03-13T09:56:25;863.15;;;586.95;;
59014;SDS011;44799;53.382;14.666;2023-03-13T09:58:59;863.50;;;588.20;;
59014;SDS011;44799;53.382;14.666;2023-03-13T10:01:30;865.17;;;587.70;;
59014;SDS011;44799;53.382;14.666;2023-03-13T10:04:04;875.38;;;595.78;;
59014;SDS011;44799;53.382;14.666;2023-03-13T10:06:37;875.88;;;596.03;;
59014;SDS011;44799;53.382;14.666;2023-03-13T10:09:22;884.03;;;603.58;;
59014;SDS011;44799;53.382;14.666;2023-03-13T10:17:38;880.30;;;602.92;;
59014;SDS011;44799;53.382;14.666;2023-03-13T10:22:43;880.53;;;597.85;;
59014;SDS011;44799;53.382;14.666;2023-03-13T10:25:31;876.55;;;597.13;;
59014;SDS011;44799;53.382;14.666;2023-03-13T10:27:59;877.50;;;595.45;;
59014;SDS011;44799;53.382;14.666;2023-03-13T10:30:30;879.08;;;595.15;;
59014;SDS011;44799;53.382;14.666;2023-03-13T10:33:21;874.78;;;593.00;;
59014;SDS011;44799;53.382;14.666;2023-03-13T10:36:11;884.75;;;599.50;;
59014;SDS011;44799;53.382;14.666;2023-03-13T10:38:45;885.05;;;603.15;;
59014;SDS011;44799;53.382;14.666;2023-03-13T10:41:34;883.03;;;597.95;;
59014;SDS011;44799;53.382;14.666;2023-03-13T10:44:06;876.65;;;594.65;;
59014;SDS011;44799;53.382;14.666;2023-03-13T10:46:43;882.08;;;599.67;;
59014;SDS011;44799;53.382;14.666;2023-03-13T10:49:15;885.17;;;599.63;;
59014;SDS011;44799;53.382;14.666;2023-03-13T10:51:56;877.28;;;595.55;;
59014;SDS011;44799;53.382;14.666;2023-03-13T10:54:31;874.75;;;594.30;;
59014;SDS011;44799;53.382;14.666;2023-03-13T10:57:08;873.90;;;590.47;;
59014;SDS011;44799;53.382;14.666;2023-03-13T10:59:49;873.47;;;592.58;;
59014;SDS011;44799;53.382;14.666;2023-03-13T11:02:36;879.20;;;596.67;;
59014;SDS011;44799;53.382;14.666;2023-03-13T11:07:47;870.13;;;589.75;;
59014;SDS011;44799;53.382;14.666;2023-03-13T11:10:18;881.13;;;594.67;;
59014;SDS011;44799;53.382;14.666;2023-03-13T11:12:50;881.22;;;594.38;;
59014;SDS011;44799;53.382;14.666;2023-03-13T11:15:28;879.97;;;594.70;;
59014;SDS011;44799;53.382;14.666;2023-03-13T11:21:07;881.58;;;598.35;;
59014;SDS011;44799;53.382;14.666;2023-03-13T11:23:49;878.60;;;597.40;;
59014;SDS011;44799;53.382;14.666;2023-03-13T11:31:50;864.22;;;591.45;;
59014;SDS011;44799;53.382;14.666;2023-03-13T11:34:37;869.70;;;592.95;;
59014;SDS011;44799;53.382;14.666;2023-03-13T11:37:10;869.15;;;591.83;;
59014;SDS011;44799;53.382;14.666;2023-03-13T11:42:54;861.03;;;585.60;;
59014;SDS011;44799;53.382;14.666;2023-03-13T11:51:14;867.78;;;590.53;;
59014;SDS011;44799;53.382;14.666;2023-03-13T11:56:55;864.95;;;591.17;;
59014;SDS011;44799;53.382;14.666;2023-03-13T11:59:49;873.72;;;594.28;;
59014;SDS011;44799;53.382;14.666;2023-03-13T12:02:30;878.50;;;597.53;;
59014;SDS011;44799;53.382;14.666;2023-03-13T12:05:00;879.20;;;597.58;;
59014;SDS011;44799;53.382;14.666;2023-03-13T12:15:56;884.53;;;599.13;;
59014;SDS011;44799;53.382;14.666;2023-03-13T12:18:37;880.97;;;597.10;;
59014;SDS011;44799;53.382;14.666;2023-03-13T12:24:03;881.95;;;597.88;;
59014;SDS011;44799;53.382;14.666;2023-03-13T12:27:04;880.75;;;601.45;;
59014;SDS011;44799;53.382;14.666;2023-03-13T12:29:47;879.88;;;598.45;;
59014;SDS011;44799;53.382;14.666;2023-03-13T12:43:30;879.60;;;598.40;;
59014;SDS011;44799;53.382;14.666;2023-03-13T12:48:26;892.95;;;609.97;;
59014;SDS011;44799;53.382;14.666;2023-03-13T12:54:01;880.20;;;599.63;;
59014;SDS011;44799;53.382;14.666;2023-03-13T12:59:25;887.42;;;604.47;;
59014;SDS011;44799;53.382;14.666;2023-03-13T13:01:56;886.33;;;602.78;;
59014;SDS011;44799;53.382;14.666;2023-03-13T13:04:31;890.80;;;605.97;;
59014;SDS011;44799;53.382;14.666;2023-03-13T13:07:06;872.53;;;594.17;;
59014;SDS011;44799;53.382;14.666;2023-03-13T13:09:59;878.67;;;596.25;;
59014;SDS011;44799;53.382;14.666;2023-03-13T13:12:38;877.67;;;598.00;;
59014;SDS011;44799;53.382;14.666;2023-03-13T13:17:59;880.38;;;597.97;;
59014;SDS011;44799;53.382;14.666;2023-03-13T13:39:48;900.40;;;611.08;;
59014;SDS011;44799;53.382;14.666;2023-03-13T13:47:39;886.55;;;601.55;;
59014;SDS011;44799;53.382;14.666;2023-03-13T13:52:47;891.80;;;606.47;;
59014;SDS011;44799;53.382;14.666;2023-03-13T13:58:01;897.72;;;609.20;;
59014;SDS011;44799;53.382;14.666;2023-03-13T14:00:37;902.22;;;615.92;;
59014;SDS011;44799;53.382;14.666;2023-03-13T14:03:17;896.88;;;609.28;;
59014;SDS011;44799;53.382;14.666;2023-03-13T14:05:52;893.13;;;609.40;;
59014;SDS011;44799;53.382;14.666;2023-03-13T14:08:31;894.50;;;612.10;;
59014;SDS011;44799;53.382;14.666;2023-03-13T14:14:07;900.40;;;617.67;;
59014;SDS011;44799;53.382;14.666;2023-03-13T14:16:37;906.13;;;619.85;;
59014;SDS011;44799;53.382;14.666;2023-03-13T14:19:03;910.92;;;622.20;;
59014;SDS011;44799;53.382;14.666;2023-03-13T14:21:29;907.38;;;622.58;;
59014;SDS011;44799;53.382;14.666;2023-03-13T14:23:55;909.47;;;621.70;;
59014;SDS011;44799;53.382;14.666;2023-03-13T14:26:24;898.08;;;612.33;;
59014;SDS011;44799;53.382;14.666;2023-03-13T14:28:56;904.45;;;619.13;;
59014;SDS011;44799;53.382;14.666;2023-03-13T14:31:25;895.60;;;613.33;;
59014;SDS011;44799;53.382;14.666;2023-03-13T14:34:04;908.72;;;622.10;;
59014;SDS011;44799;53.382;14.666;2023-03-13T14:36:45;903.53;;;617.35;;
59014;SDS011;44799;53.382;14.666;2023-03-13T14:42:15;901.60;;;619.28;;
59014;SDS011;44799;53.382;14.666;2023-03-13T14:44:42;900.80;;;617.30;;
59014;SDS011;44799;53.382;14.666;2023-03-13T14:47:20;912.75;;;623.00;;
59014;SDS011;44799;53.382;14.666;2023-03-13T14:49:54;917.13;;;628.15;;
59014;SDS011;44799;53.382;14.666;2023-03-13T14:52:25;914.05;;;626.42;;
59014;SDS011;44799;53.382;14.666;2023-03-13T14:54:59;914.92;;;627.17;;
59014;SDS011;44799;53.382;14.666;2023-03-13T15:05:46;921.95;;;631.63;;
59014;SDS011;44799;53.382;14.666;2023-03-13T15:08:21;926.38;;;634.97;;
59014;SDS011;44799;53.382;14.666;2023-03-13T15:10:48;923.65;;;634.90;;
59014;SDS011;44799;53.382;14.666;2023-03-13T15:13:16;900.40;;;609.38;;
59014;SDS011;44799;53.382;14.666;2023-03-13T15:15:48;893.92;;;603.83;;
59014;SDS011;44799;53.382;14.666;2023-03-13T15:18:27;901.80;;;610.33;;
59014;SDS011;44799;53.382;14.666;2023-03-13T15:20:56;902.25;;;610.97;;
59014;SDS011;44799;53.382;14.666;2023-03-13T15:23:53;890.60;;;604.47;;
59014;SDS011;44799;53.382;14.666;2023-03-13T15:26:25;897.90;;;607.28;;
59014;SDS011;44799;53.382;14.666;2023-03-13T15:28:52;896.08;;;603.35;;
59014;SDS011;44799;53.382;14.666;2023-03-13T15:31:18;895.95;;;605.22;;
59014;SDS011;44799;53.382;14.666;2023-03-13T15:33:49;900.80;;;605.72;;
59014;SDS011;44799;53.382;14.666;2023-03-13T15:36:21;896.78;;;603.58;;
59014;SDS011;44799;53.382;14.666;2023-03-13T15:38:47;895.78;;;602.72;;
59014;SDS011;44799;53.382;14.666;2023-03-13T15:41:13;903.35;;;608.65;;
59014;SDS011;44799;53.382;14.666;2023-03-13T15:43:40;908.95;;;611.75;;
59014;SDS011;44799;53.382;14.666;2023-03-13T15:46:08;917.58;;;616.97;;
59014;SDS011;44799;53.382;14.666;2023-03-13T15:48:38;920.88;;;617.92;;
59014;SDS011;44799;53.382;14.666;2023-03-13T15:51:08;910.92;;;615.75;;
59014;SDS011;44799;53.382;14.666;2023-03-13T15:53:38;916.25;;;620.97;;
59014;SDS011;44799;53.382;14.666;2023-03-13T15:56:11;918.83;;;620.78;;
59014;SDS011;44799;53.382;14.666;2023-03-13T15:58:38;906.53;;;613.75;;
59014;SDS011;44799;53.382;14.666;2023-03-13T16:01:04;917.58;;;617.47;;
59014;SDS011;44799;53.382;14.666;2023-03-13T16:03:30;920.92;;;621.40;;
59014;SDS011;44799;53.382;14.666;2023-03-13T16:05:56;914.05;;;616.63;;
59014;SDS011;44799;53.382;14.666;2023-03-13T16:08:23;903.35;;;611.58;;
59014;SDS011;44799;53.382;14.666;2023-03-13T16:10:51;897.40;;;607.50;;
59014;SDS011;44799;53.382;14.666;2023-03-13T16:13:17;895.15;;;605.75;;
59014;SDS011;44799;53.382;14.666;2023-03-13T16:15:43;891.33;;;602.63;;
59014;SDS011;44799;53.382;14.666;2023-03-13T16:18:19;896.30;;;604.95;;
59014;SDS011;44799;53.382;14.666;2023-03-13T16:20:49;903.50;;;609.08;;
59014;SDS011;44799;53.382;14.666;2023-03-13T16:23:16;902.20;;;611.22;;
59014;SDS011;44799;53.382;14.666;2023-03-13T16:25:45;905.20;;;612.47;;
59014;SDS011;44799;53.382;14.666;2023-03-13T16:28:11;902.08;;;610.45;;
59014;SDS011;44799;53.382;14.666;2023-03-13T16:30:39;909.88;;;614.88;;
59014;SDS011;44799;53.382;14.666;2023-03-13T16:33:07;901.95;;;612.25;;
59014;SDS011;44799;53.382;14.666;2023-03-13T16:35:34;905.72;;;615.17;;
59014;SDS011;44799;53.382;14.666;2023-03-13T16:38:01;912.15;;;618.75;;
59014;SDS011;44799;53.382;14.666;2023-03-13T16:40:31;915.25;;;621.97;;
59014;SDS011;44799;53.382;14.666;2023-03-13T16:42:58;910.13;;;618.22;;
59014;SDS011;44799;53.382;14.666;2023-03-13T16:45:24;907.50;;;614.75;;
59014;SDS011;44799;53.382;14.666;2023-03-13T16:47:51;897.83;;;610.70;;
59014;SDS011;44799;53.382;14.666;2023-03-13T16:53:04;913.55;;;620.67;;
59014;SDS011;44799;53.382;14.666;2023-03-13T16:55:30;922.55;;;627.38;;
59014;SDS011;44799;53.382;14.666;2023-03-13T16:58:00;903.03;;;616.40;;
59014;SDS011;44799;53.382;14.666;2023-03-13T17:00:27;903.83;;;614.15;;
59014;SDS011;44799;53.382;14.666;2023-03-13T17:02:54;897.13;;;609.58;;
59014;SDS011;44799;53.382;14.666;2023-03-13T17:05:21;898.15;;;609.17;;
59014;SDS011;44799;53.382;14.666;2023-03-13T17:07:48;903.58;;;613.60;;
59014;SDS011;44799;53.382;14.666;2023-03-13T17:10:33;900.65;;;612.55;;
59014;SDS011;44799;53.382;14.666;2023-03-13T17:12:59;902.17;;;614.08;;
59014;SDS011;44799;53.382;14.666;2023-03-13T17:15:25;903.33;;;615.80;;
59014;SDS011;44799;53.382;14.666;2023-03-13T17:17:52;899.10;;;611.53;;
59014;SDS011;44799;53.382;14.666;2023-03-13T17:20:19;905.10;;;613.28;;
59014;SDS011;44799;53.382;14.666;2023-03-13T17:22:50;895.17;;;608.27;;
59014;SDS011;44799;53.382;14.666;2023-03-13T17:25:15;894.45;;;608.47;;
59014;SDS011;44799;53.382;14.666;2023-03-13T17:27:42;900.88;;;610.55;;
59014;SDS011;44799;53.382;14.666;2023-03-13T17:30:19;893.92;;;606.70;;
59014;SDS011;44799;53.382;14.666;2023-03-13T17:32:50;893.30;;;605.80;;
59014;SDS011;44799;53.382;14.666;2023-03-13T17:35:16;892.25;;;604.92;;
59014;SDS011;44799;53.382;14.666;2023-03-13T17:37:43;889.58;;;606.47;;
59014;SDS011;44799;53.382;14.666;2023-03-13T17:40:12;886.35;;;602.90;;
59014;SDS011;44799;53.382;14.666;2023-03-13T17:42:40;889.33;;;602.78;;
59014;SDS011;44799;53.382;14.666;2023-03-13T17:45:06;889.85;;;604.15;;
59014;SDS011;44799;53.382;14.666;2023-03-13T17:47:32;898.92;;;610.67;;
59014;SDS011;44799;53.382;14.666;2023-03-13T17:49:58;905.67;;;617.58;;
59014;SDS011;44799;53.382;14.666;2023-03-13T17:52:25;904.47;;;618.03;;